createdAt,value
2023-01-19T00:02:39.269Z,-0.19
2023-01-19T00:07:35.661Z,-0.15
2023-01-19T00:12:32.573Z,-0.07
2023-01-19T00:17:28.963Z,-0.01
2023-01-19T00:22:25.441Z,0.05
2023-01-19T00:27:21.855Z,0.12
2023-01-19T00:32:19.710Z,0.16
2023-01-19T00:37:17.296Z,0.22
2023-01-19T00:42:32.200Z,0.32
2023-01-19T00:47:28.581Z,0.35
2023-01-19T00:52:25.042Z,0.41
2023-01-19T00:57:21.533Z,0.43
2023-01-19T01:02:18.190Z,0.44
2023-01-19T01:07:14.659Z,0.46
2023-01-19T01:12:11.065Z,0.53
2023-01-19T01:17:11.298Z,0.53
2023-01-19T01:22:08.817Z,0.56
2023-01-19T01:27:05.240Z,0.61
2023-01-19T01:32:02.144Z,0.60
2023-01-19T01:36:58.563Z,0.66
2023-01-19T01:41:56.006Z,0.72
2023-01-19T01:46:54.090Z,0.76
2023-01-19T01:51:54.187Z,0.81
2023-01-19T01:56:53.570Z,0.83
2023-01-19T02:02:08.538Z,0.85
2023-01-19T02:07:24.869Z,0.86
2023-01-19T02:12:40.780Z,0.90
2023-01-19T02:17:37.148Z,0.89
2023-01-19T02:22:40.748Z,0.92
2023-01-19T02:27:37.717Z,0.95
2023-01-19T02:32:34.095Z,0.99
2023-01-19T02:37:36.522Z,0.98
2023-01-19T02:42:38.635Z,1.02
2023-01-19T02:47:39.835Z,1.01
2023-01-19T02:52:36.261Z,0.99
2023-01-19T02:58:06.439Z,1.04
2023-01-19T03:03:17.695Z,1.04
2023-01-19T03:08:42.052Z,1.10
2023-01-19T03:13:51.974Z,1.15
2023-01-19T03:18:54.646Z,1.15
2023-01-19T03:23:52.230Z,1.16
2023-01-19T03:28:49.979Z,1.17
2023-01-19T03:33:51.435Z,1.19
2023-01-19T03:38:49.872Z,1.22
2023-01-19T03:43:49.027Z,1.24
2023-01-19T03:48:49.655Z,1.23
2023-01-19T03:53:46.717Z,1.28
2023-01-19T03:58:43.200Z,1.27
2023-01-19T04:03:39.956Z,1.27
2023-01-19T04:08:36.711Z,1.29
2023-01-19T04:13:33.146Z,1.27
2023-01-19T04:18:32.365Z,1.32
2023-01-19T04:23:30.116Z,1.30
2023-01-19T04:28:27.235Z,1.31
2023-01-19T04:33:23.719Z,1.29
2023-01-19T04:38:20.624Z,1.29
2023-01-19T04:43:17.396Z,1.32
2023-01-19T04:48:14.537Z,1.32
2023-01-19T04:53:12.291Z,1.31
2023-01-19T04:58:08.712Z,1.27
2023-01-19T05:03:05.616Z,1.33
2023-01-19T05:08:02.267Z,1.34
2023-01-19T05:12:59.047Z,1.32
2023-01-19T05:17:57.928Z,1.35
2023-01-19T05:22:54.378Z,1.38
2023-01-19T05:27:50.834Z,1.36
2023-01-19T05:32:47.243Z,1.38
2023-01-19T05:37:44.306Z,1.36
2023-01-19T05:42:40.740Z,1.37
2023-01-19T05:47:37.191Z,1.35
2023-01-19T05:52:33.600Z,1.33
2023-01-19T05:57:29.992Z,1.27
2023-01-19T06:02:28.674Z,1.24
2023-01-19T06:07:27.535Z,1.29
2023-01-19T06:12:25.298Z,1.27
2023-01-19T06:17:21.731Z,1.34
2023-01-19T06:22:18.114Z,1.39
2023-01-19T06:27:14.557Z,1.29
2023-01-19T06:32:11.160Z,1.24
2023-01-19T06:37:07.568Z,1.21
2023-01-19T06:42:04.072Z,1.23
2023-01-19T06:47:15.594Z,1.26
2023-01-19T06:52:15.815Z,1.27
2023-01-19T06:57:13.274Z,1.31
2023-01-19T07:02:26.207Z,1.31
2023-01-19T07:07:24.505Z,1.32
2023-01-19T07:12:21.956Z,1.36
2023-01-19T07:17:18.751Z,1.44
2023-01-19T07:22:15.177Z,1.44
2023-01-19T07:27:11.608Z,1.41
2023-01-19T07:32:08.515Z,1.39
2023-01-19T07:37:04.978Z,1.42
2023-01-19T07:42:01.414Z,1.35
2023-01-19T07:46:57.787Z,1.41
2023-01-19T07:51:56.270Z,1.34
2023-01-19T07:56:55.832Z,1.40
2023-01-19T08:01:54.017Z,1.44
2023-01-19T08:06:50.723Z,1.45
2023-01-19T08:11:47.220Z,1.49
2023-01-19T08:16:43.648Z,1.46
2023-01-19T08:21:40.062Z,1.57
2023-01-19T08:26:36.550Z,1.53
2023-01-19T08:31:33.226Z,1.64
2023-01-19T08:36:30.318Z,1.67
2023-01-19T08:41:26.808Z,1.70
2023-01-19T08:46:23.222Z,1.74
2023-01-19T08:51:19.780Z,1.79
2023-01-19T08:56:16.288Z,1.88
2023-01-19T09:01:14.924Z,1.89
2023-01-19T09:06:13.150Z,1.88
2023-01-19T09:11:13.717Z,1.89
2023-01-19T09:16:12.538Z,1.94
2023-01-19T09:21:09.315Z,1.94
2023-01-19T09:26:06.169Z,1.84
2023-01-19T09:31:07.799Z,1.78
2023-01-19T09:36:04.293Z,1.65
2023-01-19T09:41:01.224Z,1.47
2023-01-19T09:46:00.535Z,1.44
2023-01-19T09:51:01.905Z,1.46
2023-01-19T09:55:58.329Z,1.57
2023-01-19T10:01:08.284Z,1.70
2023-01-19T10:06:09.185Z,1.67
2023-01-19T10:11:18.708Z,1.81
2023-01-19T10:16:33.776Z,1.94
2023-01-19T10:21:44.218Z,1.93
2023-01-19T10:26:45.622Z,2.03
2023-01-19T10:31:44.742Z,2.04
2023-01-19T10:36:41.209Z,2.10
2023-01-19T10:41:44.944Z,2.19
2023-01-19T10:46:46.364Z,2.17
2023-01-19T10:51:49.338Z,2.09
2023-01-19T10:56:52.705Z,2.03
2023-01-19T11:02:22.664Z,2.10
2023-01-19T11:07:27.832Z,2.22
2023-01-19T11:12:24.394Z,2.16
2023-01-19T11:17:25.144Z,2.12
2023-01-19T11:22:27.299Z,2.12
2023-01-19T11:27:23.798Z,2.20
2023-01-19T11:32:22.418Z,2.04
2023-01-19T11:37:18.794Z,1.93
2023-01-19T11:42:16.474Z,1.93
2023-01-19T11:47:18.508Z,2.03
2023-01-19T11:52:35.971Z,2.08
2023-01-19T11:57:32.416Z,2.10
2023-01-19T12:02:41.963Z,2.00
2023-01-19T12:07:38.645Z,2.06
2023-01-19T12:12:39.899Z,2.19
2023-01-19T12:17:45.331Z,2.30
2023-01-19T12:22:50.611Z,2.32
2023-01-19T12:27:49.354Z,2.46
2023-01-19T12:32:45.782Z,2.54
2023-01-19T12:37:43.175Z,2.56
2023-01-19T12:42:46.557Z,2.43
2023-01-19T12:47:52.882Z,2.47
2023-01-19T12:53:02.802Z,2.40
2023-01-19T12:58:06.903Z,2.43
2023-01-19T13:03:05.921Z,2.36
2023-01-19T13:08:02.346Z,2.25
2023-01-19T13:13:23.020Z,2.28
2023-01-19T13:18:24.915Z,2.25
2023-01-19T13:23:28.469Z,2.29
2023-01-19T13:28:46.189Z,2.33
2023-01-19T13:33:50.776Z,2.34
2023-01-19T13:38:49.946Z,2.48
2023-01-19T13:43:47.644Z,2.51
2023-01-19T13:49:12.770Z,2.59
2023-01-19T13:54:16.827Z,2.56
2023-01-19T13:59:13.755Z,2.58
2023-01-19T14:04:28.515Z,2.65
2023-01-19T14:09:24.958Z,2.77
2023-01-19T14:14:23.599Z,2.79
2023-01-19T14:19:20.153Z,2.95
2023-01-19T14:24:20.142Z,3.07
2023-01-19T14:29:19.229Z,3.21
2023-01-19T14:34:35.535Z,3.12
2023-01-19T14:39:34.610Z,3.03
2023-01-19T14:44:35.614Z,3.01
2023-01-19T14:49:36.576Z,3.07
2023-01-19T14:54:39.867Z,3.19
2023-01-19T14:59:36.329Z,3.22
2023-01-19T15:04:32.777Z,3.05
2023-01-19T15:09:29.247Z,2.90
2023-01-19T15:14:27.732Z,2.73
2023-01-19T15:19:24.116Z,2.64
2023-01-19T15:24:20.576Z,2.55
2023-01-19T15:29:32.399Z,2.49
2023-01-19T15:34:28.860Z,2.45
2023-01-19T15:39:26.080Z,2.42
2023-01-19T15:44:22.482Z,2.36
2023-01-19T15:49:18.935Z,2.36
2023-01-19T15:54:16.361Z,2.31
2023-01-19T15:59:13.000Z,2.14
2023-01-19T16:04:11.710Z,2.20
2023-01-19T16:09:08.104Z,2.22
2023-01-19T16:14:04.478Z,2.18
2023-01-19T16:19:01.107Z,2.20
2023-01-19T16:23:57.569Z,2.20
2023-01-19T16:29:01.357Z,2.21
2023-01-19T16:33:57.811Z,2.16
2023-01-19T16:38:54.719Z,2.09
2023-01-19T16:43:53.094Z,2.05
2023-01-19T16:48:51.057Z,2.02
2023-01-19T16:53:50.105Z,2.02
2023-01-19T16:58:46.632Z,1.94
2023-01-19T17:03:43.729Z,1.75
2023-01-19T17:08:41.261Z,1.73
2023-01-19T17:13:37.657Z,1.75
2023-01-19T17:18:35.457Z,1.69
2023-01-19T17:23:33.088Z,1.69
2023-01-19T17:28:29.495Z,1.66
2023-01-19T17:33:25.954Z,1.58
2023-01-19T17:38:22.535Z,1.56
2023-01-19T17:43:18.983Z,1.61
2023-01-19T17:48:17.322Z,1.57
2023-01-19T17:53:13.785Z,1.55
2023-01-19T17:58:10.183Z,1.49
2023-01-19T18:03:06.601Z,1.50
2023-01-19T18:08:03.028Z,1.67
2023-01-19T18:12:59.480Z,1.68
2023-01-19T18:17:55.893Z,1.69
2023-01-19T18:22:52.407Z,1.68
2023-01-19T18:27:48.789Z,1.65
2023-01-19T18:32:46.727Z,1.54
2023-01-19T18:37:43.105Z,1.45
2023-01-19T18:42:39.535Z,1.35
2023-01-19T18:47:35.983Z,1.33
2023-01-19T18:52:33.276Z,1.33
2023-01-19T18:57:29.700Z,1.38
2023-01-19T19:02:26.131Z,1.43
2023-01-19T19:07:22.564Z,1.46
2023-01-19T19:12:19.022Z,1.45
2023-01-19T19:17:15.418Z,1.43
2023-01-19T19:22:12.645Z,1.40
2023-01-19T19:27:13.860Z,1.47
2023-01-19T19:32:10.267Z,1.44
2023-01-19T19:37:06.690Z,1.46
2023-01-19T19:42:03.078Z,1.37
2023-01-19T19:46:59.569Z,1.33
2023-01-19T19:51:56.027Z,1.31
2023-01-19T19:56:53.529Z,1.29
2023-01-19T20:01:53.605Z,1.28
2023-01-19T20:06:50.856Z,1.25
2023-01-19T20:11:48.977Z,1.16
2023-01-19T20:16:45.446Z,1.08
2023-01-19T20:21:42.325Z,1.03
2023-01-19T20:26:41.317Z,0.94
2023-01-19T20:31:42.043Z,0.91
2023-01-19T20:36:38.637Z,0.86
2023-01-19T20:41:37.254Z,0.74
2023-01-19T20:46:33.621Z,0.77
2023-01-19T20:51:30.101Z,0.72
2023-01-19T20:56:26.490Z,0.71
2023-01-19T21:01:24.732Z,0.66
2023-01-19T21:06:21.959Z,0.61
2023-01-19T21:11:20.952Z,0.58
2023-01-19T21:16:17.451Z,0.55
2023-01-19T21:21:29.032Z,0.45
2023-01-19T21:26:29.582Z,0.42
2023-01-19T21:31:27.980Z,0.42
2023-01-19T21:36:25.095Z,0.44
2023-01-19T21:41:21.516Z,0.41
2023-01-19T21:46:21.297Z,0.41
2023-01-19T21:51:17.664Z,0.35
2023-01-19T21:56:15.322Z,0.29
2023-01-19T22:01:13.633Z,0.31
2023-01-19T22:06:12.924Z,0.28
2023-01-19T22:11:11.675Z,0.22
2023-01-19T22:16:10.770Z,0.22
2023-01-19T22:21:15.615Z,0.25
2023-01-19T22:26:12.094Z,0.25
2023-01-19T22:31:14.053Z,0.26
2023-01-19T22:36:22.390Z,0.27
2023-01-19T22:41:28.762Z,0.25
2023-01-19T22:46:30.502Z,0.31
2023-01-19T22:51:28.527Z,0.27
2023-01-19T22:56:27.298Z,0.17
2023-01-19T23:01:27.710Z,0.14
2023-01-19T23:06:29.387Z,0.14
2023-01-19T23:11:29.301Z,0.16
2023-01-19T23:16:25.896Z,0.13
2023-01-19T23:21:24.512Z,0.09
2023-01-19T23:26:21.858Z,0.07
2023-01-19T23:31:22.388Z,0.13
2023-01-19T23:36:20.140Z,0.10
2023-01-19T23:41:16.754Z,0.08
2023-01-19T23:46:14.080Z,0.07
2023-01-19T23:51:14.729Z,0.11
2023-01-19T23:56:14.804Z,0.06
